Time;durP1;ratioP1;P1;durP2;ratioP2;P2;SDS_P1;SDS_P2;PMS_P1;PMS_P2;Temp;Humidity;BMP_temperature;BMP_pressure;BME280_temperature;BME280_humidity;BME280_pressure;Samples;Min_cycle;Max_cycle;Signal;HPM_P1;HPM_P2
2022/05/21 00:01:44;;;;;;;16.70;12.50;;;;;;;;;;5053400;28;20260;-28
2022/05/21 00:04:10;;;;;;;17.95;14.05;;;;;;;;;;5035610;28;20371;-29
2022/05/21 00:06:36;;;;;;;19.50;14.15;;;;;;;;;;5053682;28;20041;-29
2022/05/21 00:09:02;;;;;;;20.38;15.02;;;;;;;;;;5053050;28;20228;-28
2022/05/21 00:11:28;;;;;;;20.30;15.82;;;;;;;;;;5053067;28;20119;-29
2022/05/21 00:13:56;;;;;;;21.80;15.48;;;;;;;;;;5035486;28;20552;-30
2022/05/21 00:16:22;;;;;;;19.90;14.32;;;;;;;;;;5052800;28;20041;-27
2022/05/21 00:18:49;;;;;;;20.73;14.50;;;;;;;;;;5052403;28;20053;-32
2022/05/21 00:21:15;;;;;;;22.88;15.68;;;;;;;;;;5034705;28;20064;-30
2022/05/21 00:23:42;;;;;;;23.38;16.90;;;;;;;;;;5033713;28;20045;-32
2022/05/21 00:26:10;;;;;;;19.67;16.55;;;;;;;;;;5051717;28;20033;-32
2022/05/21 00:28:37;;;;;;;18.92;15.50;;;;;;;;;;5052011;28;20063;-30
2022/05/21 00:31:04;;;;;;;21.52;16.13;;;;;;;;;;5052771;28;20391;-29
2022/05/21 00:33:30;;;;;;;19.75;14.85;;;;;;;;;;5051225;28;20041;-32
2022/05/21 00:35:56;;;;;;;28.38;17.58;;;;;;;;;;5052743;28;20502;-30
2022/05/21 00:38:23;;;;;;;21.40;17.17;;;;;;;;;;5051131;28;20041;-35
2022/05/21 00:40:50;;;;;;;20.80;16.60;;;;;;;;;;5052037;28;20056;-31
2022/05/21 00:43:34;;;;;;;20.77;17.63;;;;;;;;;;5051985;28;20037;-31
2022/05/21 00:46:01;;;;;;;24.92;17.30;;;;;;;;;;5052046;28;20463;-30
2022/05/21 00:48:27;;;;;;;21.17;16.75;;;;;;;;;;5051984;28;20402;-34
2022/05/21 00:50:53;;;;;;;22.52;16.92;;;;;;;;;;5051909;28;20041;-33
2022/05/21 00:53:20;;;;;;;24.40;17.35;;;;;;;;;;5051264;28;20045;-30
2022/05/21 00:55:47;;;;;;;24.98;17.55;;;;;;;;;;5032881;28;20129;-30
2022/05/21 01:01:00;;;;;;;27.73;19.98;;;;;;;;;;5052776;28;20124;-28
2022/05/21 01:03:28;;;;;;;29.02;18.83;;;;;;;;;;5052810;28;20399;-28
2022/05/21 01:05:54;;;;;;;33.55;22.08;;;;;;;;;;5052235;28;20178;-28
2022/05/21 01:08:20;;;;;;;29.50;20.08;;;;;;;;;;5052399;28;20127;-27
2022/05/21 01:10:49;;;;;;;29.15;20.38;;;;;;;;;;5052415;28;20043;-28
2022/05/21 01:13:17;;;;;;;32.95;23.17;;;;;;;;;;5051891;28;20047;-29
2022/05/21 01:15:45;;;;;;;34.30;22.98;;;;;;;;;;5051873;28;20041;-28
2022/05/21 01:18:12;;;;;;;34.40;24.77;;;;;;;;;;5051651;28;20055;-28
2022/05/21 01:20:48;;;;;;;33.75;24.27;;;;;;;;;;5052250;28;20045;-29
2022/05/21 01:23:14;;;;;;;37.05;25.45;;;;;;;;;;5052116;28;20127;-29
2022/05/21 01:25:41;;;;;;;38.67;26.98;;;;;;;;;;5051488;28;20040;-31
2022/05/21 01:28:09;;;;;;;37.17;24.63;;;;;;;;;;5052101;28;20110;-30
2022/05/21 01:30:38;;;;;;;35.58;25.63;;;;;;;;;;5051737;28;20380;-30
2022/05/21 01:33:06;;;;;;;36.72;26.23;;;;;;;;;;5051194;28;20080;-30
2022/05/21 01:35:32;;;;;;;36.95;24.13;;;;;;;;;;5050911;28;20128;-29
2022/05/21 01:37:59;;;;;;;38.08;25.50;;;;;;;;;;5051742;28;20044;-30
2022/05/21 01:40:25;;;;;;;34.50;25.13;;;;;;;;;;5051980;28;20539;-29
2022/05/21 01:45:36;;;;;;;35.42;26.17;;;;;;;;;;5050003;28;20049;-29
2022/05/21 01:48:03;;;;;;;37.22;26.63;;;;;;;;;;5050495;28;20124;-29
2022/05/21 01:50:30;;;;;;;33.38;26.10;;;;;;;;;;5051756;28;20043;-30
2022/05/21 01:52:56;;;;;;;38.17;26.17;;;;;;;;;;5051615;28;20043;-29
2022/05/21 01:55:22;;;;;;;36.92;27.63;;;;;;;;;;5051502;28;20044;-29
2022/05/21 01:57:48;;;;;;;42.45;29.02;;;;;;;;;;5051274;28;20402;-29
2022/05/21 02:00:15;;;;;;;35.90;27.23;;;;;;;;;;5051163;28;20051;-29
2022/05/21 02:02:41;;;;;;;41.92;29.40;;;;;;;;;;5050975;28;20064;-30
2022/05/21 02:05:08;;;;;;;37.90;29.88;;;;;;;;;;5051199;28;20144;-29
2022/05/21 02:07:35;;;;;;;42.72;30.75;;;;;;;;;;5050987;28;20052;-29
2022/05/21 02:10:01;;;;;;;41.47;31.65;;;;;;;;;;5051297;28;20120;-29
2022/05/21 02:12:27;;;;;;;38.38;29.65;;;;;;;;;;5051562;28;20497;-30
2022/05/21 02:14:56;;;;;;;38.75;31.13;;;;;;;;;;5051498;28;20482;-29
2022/05/21 02:17:22;;;;;;;40.78;29.85;;;;;;;;;;5051478;28;20055;-29
2022/05/21 02:19:48;;;;;;;41.80;30.90;;;;;;;;;;5051275;28;20044;-29
2022/05/21 02:22:15;;;;;;;42.63;30.40;;;;;;;;;;5051442;28;20506;-30
2022/05/21 02:24:41;;;;;;;39.10;31.15;;;;;;;;;;5050933;28;20041;-29
2022/05/21 02:27:11;;;;;;;41.92;31.35;;;;;;;;;;5051089;28;20041;-29
2022/05/21 02:29:37;;;;;;;44.03;32.30;;;;;;;;;;5051380;28;20075;-29
2022/05/21 02:32:04;;;;;;;39.92;32.53;;;;;;;;;;5051000;28;20421;-29
2022/05/21 02:34:31;;;;;;;36.97;31.58;;;;;;;;;;5050992;28;20045;-29
2022/05/21 02:39:42;;;;;;;43.50;32.92;;;;;;;;;;5051313;28;20045;-29
2022/05/21 02:42:43;;;;;;;38.60;32.03;;;;;;;;;;5051221;28;20120;-29
2022/05/21 02:44:55;;;;;;;41.53;31.40;;;;;;;;;;5050780;28;20053;-29
2022/05/21 02:47:21;;;;;;;38.88;31.27;;;;;;;;;;5052548;28;20041;-30
2022/05/21 02:49:47;;;;;;;39.50;29.98;;;;;;;;;;5054786;28;20040;-29
2022/05/21 02:52:13;;;;;;;40.60;29.15;;;;;;;;;;5054894;28;20075;-31
2022/05/21 02:54:39;;;;;;;38.45;28.80;;;;;;;;;;5054592;28;20099;-30
2022/05/21 02:57:09;;;;;;;42.50;32.10;;;;;;;;;;5053738;28;20044;-29
2022/05/21 02:59:35;;;;;;;40.17;29.58;;;;;;;;;;5054355;28;20410;-30
2022/05/21 03:02:01;;;;;;;42.47;30.67;;;;;;;;;;5054176;28;20040;-29
2022/05/21 03:04:28;;;;;;;34.30;28.67;;;;;;;;;;5054558;28;20151;-30
2022/05/21 03:06:54;;;;;;;38.35;28.02;;;;;;;;;;5054134;28;20102;-30
2022/05/21 03:12:05;;;;;;;39.75;27.70;;;;;;;;;;5053996;28;20075;-30
2022/05/21 03:14:31;;;;;;;37.47;28.10;;;;;;;;;;5054321;28;20052;-31
2022/05/21 03:16:59;;;;;;;35.42;26.88;;;;;;;;;;5054449;28;20048;-30
2022/05/21 03:19:30;;;;;;;32.67;25.92;;;;;;;;;;5054070;28;20651;-29
2022/05/21 03:21:56;;;;;;;36.15;27.67;;;;;;;;;;5053913;28;20040;-30
2022/05/21 03:24:22;;;;;;;32.95;24.77;;;;;;;;;;5053772;28;20040;-30
2022/05/21 03:26:49;;;;;;;32.90;23.77;;;;;;;;;;5054105;28;20041;-30
2022/05/21 03:29:15;;;;;;;37.58;26.75;;;;;;;;;;5054078;28;20041;-30
2022/05/21 03:31:41;;;;;;;34.35;24.17;;;;;;;;;;5053684;28;20048;-30
2022/05/21 03:34:07;;;;;;;32.35;23.73;;;;;;;;;;5053544;28;20483;-29
2022/05/21 03:36:33;;;;;;;32.47;23.23;;;;;;;;;;5053737;28;20390;-29
2022/05/21 03:38:59;;;;;;;35.13;23.50;;;;;;;;;;5053816;28;20095;-30
2022/05/21 03:41:26;;;;;;;30.25;23.23;;;;;;;;;;5053864;28;20040;-29
2022/05/21 03:43:53;;;;;;;32.97;22.40;;;;;;;;;;5053635;28;20053;-29
2022/05/21 03:46:19;;;;;;;32.05;22.65;;;;;;;;;;5053603;28;20045;-30
2022/05/21 03:48:46;;;;;;;29.48;20.38;;;;;;;;;;5053484;28;20033;-30
2022/05/21 03:51:12;;;;;;;34.20;22.63;;;;;;;;;;5053386;28;20060;-29
2022/05/21 03:53:38;;;;;;;28.73;20.15;;;;;;;;;;5035630;28;20041;-29
2022/05/21 03:56:05;;;;;;;25.58;18.85;;;;;;;;;;5053500;28;20047;-30
2022/05/21 03:58:31;;;;;;;29.45;20.55;;;;;;;;;;5052793;28;20175;-29
2022/05/21 04:00:57;;;;;;;24.20;18.13;;;;;;;;;;5053216;28;20044;-29
2022/05/21 04:03:24;;;;;;;28.98;20.00;;;;;;;;;;5052742;28;20099;-30
2022/05/21 04:05:51;;;;;;;29.25;19.38;;;;;;;;;;5053165;28;20054;-30
2022/05/21 04:08:17;;;;;;;30.13;19.30;;;;;;;;;;5053226;28;20387;-31
2022/05/21 04:10:43;;;;;;;25.75;18.55;;;;;;;;;;5053130;28;20398;-29
2022/05/21 04:13:09;;;;;;;27.60;18.75;;;;;;;;;;5053032;28;20387;-29
2022/05/21 04:15:35;;;;;;;29.50;17.45;;;;;;;;;;5053036;28;20037;-29
2022/05/21 04:18:02;;;;;;;29.40;18.13;;;;;;;;;;5053078;28;20137;-30
2022/05/21 04:20:28;;;;;;;20.60;16.50;;;;;;;;;;5053093;28;20052;-29
2022/05/21 04:22:54;;;;;;;26.90;16.88;;;;;;;;;;5052452;28;20045;-30
2022/05/21 04:25:23;;;;;;;26.58;18.17;;;;;;;;;;5052348;28;20124;-30
2022/05/21 04:27:49;;;;;;;27.88;16.65;;;;;;;;;;5052734;28;20037;-30
2022/05/21 04:30:19;;;;;;;26.20;16.65;;;;;;;;;;5052744;28;20037;-30
2022/05/21 04:32:46;;;;;;;24.35;17.73;;;;;;;;;;5052669;28;20503;-30
2022/05/21 04:35:12;;;;;;;27.50;16.23;;;;;;;;;;5052583;28;20052;-29
2022/05/21 04:37:39;;;;;;;23.52;16.25;;;;;;;;;;5052626;28;20052;-30
2022/05/21 04:40:06;;;;;;;23.20;15.63;;;;;;;;;;5052195;28;20095;-30
2022/05/21 04:42:32;;;;;;;21.30;15.57;;;;;;;;;;5052038;28;20044;-32
2022/05/21 04:44:59;;;;;;;24.02;14.45;;;;;;;;;;5051492;28;20037;-32
2022/05/21 04:47:25;;;;;;;21.40;14.07;;;;;;;;;;5051080;28;20032;-32
2022/05/21 04:49:51;;;;;;;25.42;14.23;;;;;;;;;;5051406;28;20076;-31
2022/05/21 04:52:17;;;;;;;21.92;13.57;;;;;;;;;;5050812;28;20083;-31
2022/05/21 04:54:43;;;;;;;21.35;14.02;;;;;;;;;;5051534;28;20048;-31
2022/05/21 04:57:10;;;;;;;22.58;13.88;;;;;;;;;;5043160;28;20047;-31
2022/05/21 04:59:36;;;;;;;21.30;13.02;;;;;;;;;;5036820;28;20041;-31
2022/05/21 05:02:02;;;;;;;23.05;13.50;;;;;;;;;;5049759;28;20041;-32
2022/05/21 05:04:28;;;;;;;22.80;12.98;;;;;;;;;;5037387;28;20136;-33
2022/05/21 05:06:54;;;;;;;24.40;12.05;;;;;;;;;;5036826;28;20036;-31
2022/05/21 05:09:22;;;;;;;23.67;11.23;;;;;;;;;;5050273;28;20093;-31
2022/05/21 05:11:49;;;;;;;22.38;11.18;;;;;;;;;;5050369;28;20037;-32
2022/05/21 05:14:16;;;;;;;20.55;10.00;;;;;;;;;;5030838;28;20506;-32
2022/05/21 05:16:43;;;;;;;16.77;10.80;;;;;;;;;;5015072;28;20081;-32
2022/05/21 05:19:09;;;;;;;19.50;10.50;;;;;;;;;;5051014;28;20491;-30
2022/05/21 05:21:36;;;;;;;16.98;10.13;;;;;;;;;;5049154;28;20045;-31
2022/05/21 05:24:02;;;;;;;18.88;8.90;;;;;;;;;;5034889;28;20402;-34
2022/05/21 05:26:28;;;;;;;11.73;6.40;;;;;;;;;;5044637;28;20579;-33
2022/05/21 05:28:54;;;;;;;15.30;6.30;;;;;;;;;;5040973;28;20414;-32
2022/05/21 05:31:20;;;;;;;14.48;6.25;;;;;;;;;;5039757;28;20435;-31
2022/05/21 05:33:46;;;;;;;15.38;6.60;;;;;;;;;;5049114;28;20044;-34
2022/05/21 05:36:13;;;;;;;14.88;5.45;;;;;;;;;;5050745;28;21510;-34
2022/05/21 05:38:39;;;;;;;10.68;4.97;;;;;;;;;;5050810;28;20041;-30
2022/05/21 05:41:08;;;;;;;16.55;5.00;;;;;;;;;;5049505;28;20043;-32
2022/05/21 05:43:35;;;;;;;14.35;4.28;;;;;;;;;;5038534;28;20038;-31
2022/05/21 05:46:01;;;;;;;14.40;4.18;;;;;;;;;;5041938;28;20074;-31
2022/05/21 05:48:28;;;;;;;11.57;4.20;;;;;;;;;;5042682;28;20487;-33
2022/05/21 05:50:59;;;;;;;9.63;4.47;;;;;;;;;;5050108;28;20504;-33
2022/05/21 05:53:25;;;;;;;10.00;4.03;;;;;;;;;;5031477;28;20036;-31
2022/05/21 05:55:51;;;;;;;9.90;4.00;;;;;;;;;;5048958;28;20040;-31
2022/05/21 06:01:03;;;;;;;10.73;4.00;;;;;;;;;;5049910;28;20494;-31
2022/05/21 06:03:29;;;;;;;8.15;3.83;;;;;;;;;;5050363;28;20069;-33
2022/05/21 06:05:55;;;;;;;12.60;4.07;;;;;;;;;;5049623;28;20068;-32
2022/05/21 06:08:21;;;;;;;16.85;3.97;;;;;;;;;;5049394;28;20040;-31
2022/05/21 06:10:49;;;;;;;10.10;4.00;;;;;;;;;;5050016;28;20039;-32
2022/05/21 06:13:15;;;;;;;11.50;4.10;;;;;;;;;;5049844;28;20036;-32
2022/05/21 06:15:42;;;;;;;11.23;4.05;;;;;;;;;;5044118;28;20069;-31
2022/05/21 06:18:09;;;;;;;13.88;4.15;;;;;;;;;;5030248;28;20491;-31
2022/05/21 06:20:35;;;;;;;13.23;4.07;;;;;;;;;;5033809;28;20044;-31
2022/05/21 06:23:01;;;;;;;14.30;4.32;;;;;;;;;;5042507;28;20033;-31
2022/05/21 06:25:29;;;;;;;13.25;4.07;;;;;;;;;;5045506;28;20042;-31
2022/05/21 06:27:56;;;;;;;8.30;3.65;;;;;;;;;;5040319;28;20076;-30
2022/05/21 06:30:24;;;;;;;15.63;4.00;;;;;;;;;;5049394;28;20045;-32
2022/05/21 06:32:50;;;;;;;10.13;3.58;;;;;;;;;;5047567;28;20040;-32
2022/05/21 06:35:17;;;;;;;10.43;4.07;;;;;;;;;;5045061;28;20120;-31
2022/05/21 06:37:43;;;;;;;10.48;3.80;;;;;;;;;;5046282;28;20084;-32
2022/05/21 06:40:10;;;;;;;9.45;4.15;;;;;;;;;;5044635;28;20042;-32
2022/05/21 06:42:36;;;;;;;12.07;4.05;;;;;;;;;;5043180;28;20419;-33
2022/05/21 06:45:03;;;;;;;7.53;3.22;;;;;;;;;;5040239;28;20546;-32
2022/05/21 06:47:29;;;;;;;12.00;3.75;;;;;;;;;;5043929;28;20029;-31
2022/05/21 06:49:56;;;;;;;11.50;3.60;;;;;;;;;;5046056;28;20065;-31
2022/05/21 06:52:26;;;;;;;8.93;3.60;;;;;;;;;;5049940;28;20449;-32
2022/05/21 06:54:53;;;;;;;13.38;3.83;;;;;;;;;;5043721;28;20041;-30
2022/05/21 06:57:19;;;;;;;10.23;3.67;;;;;;;;;;5044225;28;20265;-30
2022/05/21 06:59:46;;;;;;;8.27;3.05;;;;;;;;;;5046699;28;20139;-32
2022/05/21 07:02:12;;;;;;;10.15;3.60;;;;;;;;;;5052583;28;20505;-31
2022/05/21 07:07:32;;;;;;;10.30;3.53;;;;;;;;;;5045637;28;20072;-31
2022/05/21 07:09:59;;;;;;;8.75;3.83;;;;;;;;;;5050154;28;20037;-32
2022/05/21 07:12:25;;;;;;;13.48;3.95;;;;;;;;;;5024798;28;20506;-31
2022/05/21 07:14:52;;;;;;;8.90;3.90;;;;;;;;;;5035012;28;20103;-31
2022/05/21 07:17:18;;;;;;;13.10;4.13;;;;;;;;;;5052648;28;20111;-31
2022/05/21 07:19:44;;;;;;;10.18;3.83;;;;;;;;;;5052840;28;20041;-31
2022/05/21 07:22:10;;;;;;;8.82;3.60;;;;;;;;;;5053300;28;20040;-33
2022/05/21 07:24:43;;;;;;;10.80;4.00;;;;;;;;;;5047738;28;20040;-33
2022/05/21 07:27:11;;;;;;;11.80;3.58;;;;;;;;;;5042082;28;20076;-32
2022/05/21 07:29:37;;;;;;;8.77;3.50;;;;;;;;;;5044272;28;20072;-32
2022/05/21 07:32:04;;;;;;;9.52;3.17;;;;;;;;;;5044857;28;20041;-32
2022/05/21 07:34:30;;;;;;;10.13;3.47;;;;;;;;;;5043985;28;20044;-32
2022/05/21 07:36:56;;;;;;;9.20;3.20;;;;;;;;;;5053129;28;20060;-32
2022/05/21 07:39:22;;;;;;;9.63;2.83;;;;;;;;;;5048410;28;20033;-32
2022/05/21 07:41:48;;;;;;;10.10;2.83;;;;;;;;;;5046757;28;20483;-31
2022/05/21 07:44:14;;;;;;;8.10;3.10;;;;;;;;;;5047884;28;20128;-33
2022/05/21 07:46:41;;;;;;;8.40;2.83;;;;;;;;;;5052201;28;20047;-34
2022/05/21 07:49:07;;;;;;;8.75;3.20;;;;;;;;;;5051808;28;20033;-34
2022/05/21 07:51:33;;;;;;;6.97;3.10;;;;;;;;;;5049159;28;20163;-33
2022/05/21 07:53:59;;;;;;;9.38;2.72;;;;;;;;;;5050629;28;20041;-33
2022/05/21 07:56:26;;;;;;;9.88;3.25;;;;;;;;;;5051445;28;20047;-32
2022/05/21 07:58:53;;;;;;;6.32;2.80;;;;;;;;;;5050798;28;20051;-32
2022/05/21 08:01:19;;;;;;;7.00;3.30;;;;;;;;;;5051018;28;20041;-33
2022/05/21 08:03:45;;;;;;;7.50;3.30;;;;;;;;;;5051548;28;20402;-32
2022/05/21 08:06:11;;;;;;;8.65;3.10;;;;;;;;;;5051276;28;20037;-32
2022/05/21 08:08:37;;;;;;;9.90;3.10;;;;;;;;;;5051131;28;20056;-32
2022/05/21 08:11:03;;;;;;;8.43;2.78;;;;;;;;;;5051510;28;20033;-33
2022/05/21 08:13:29;;;;;;;8.00;2.75;;;;;;;;;;5051914;28;20087;-34
2022/05/21 08:15:56;;;;;;;6.05;2.78;;;;;;;;;;5051582;28;20095;-33
2022/05/21 08:18:22;;;;;;;8.38;3.08;;;;;;;;;;5050890;28;20045;-33
2022/05/21 08:20:50;;;;;;;14.20;3.13;;;;;;;;;;5051781;28;20044;-33
2022/05/21 08:28:47;;;;;;;9.18;2.67;;;;;;;;;;5051134;28;20526;-32
2022/05/21 08:31:13;;;;;;;5.60;2.58;;;;;;;;;;5051245;28;20065;-32
2022/05/21 08:33:39;;;;;;;8.40;2.40;;;;;;;;;;5050663;28;20124;-32
2022/05/21 08:36:05;;;;;;;8.20;2.70;;;;;;;;;;5051234;28;20040;-32
2022/05/21 08:38:32;;;;;;;9.02;2.47;;;;;;;;;;5050422;28;20154;-34
2022/05/21 08:41:12;;;;;;;5.55;2.65;;;;;;;;;;5051687;28;20080;-33
2022/05/21 08:43:41;;;;;;;5.53;2.30;;;;;;;;;;5050784;28;20379;-33
2022/05/21 08:46:09;;;;;;;7.95;2.72;;;;;;;;;;5050184;28;20403;-32
2022/05/21 08:48:36;;;;;;;6.97;2.10;;;;;;;;;;5050702;28;20038;-32
2022/05/21 08:51:06;;;;;;;8.13;2.55;;;;;;;;;;5051086;28;20052;-33
2022/05/21 08:53:34;;;;;;;5.80;2.53;;;;;;;;;;5051093;28;20043;-32
2022/05/21 08:56:05;;;;;;;10.45;2.63;;;;;;;;;;5050317;28;20044;-33
2022/05/21 08:58:35;;;;;;;5.90;2.08;;;;;;;;;;5049328;28;20123;-32
2022/05/21 09:01:01;;;;;;;7.63;2.97;;;;;;;;;;5051157;28;20080;-32
2022/05/21 09:03:28;;;;;;;8.98;2.78;;;;;;;;;;5051477;28;20048;-33
2022/05/21 09:06:13;;;;;;;7.05;2.33;;;;;;;;;;5050534;28;20210;-33
2022/05/21 09:08:48;;;;;;;6.28;2.40;;;;;;;;;;5050252;28;20053;-32
2022/05/21 09:11:16;;;;;;;8.18;2.13;;;;;;;;;;5050661;28;20120;-34
2022/05/21 09:13:48;;;;;;;7.95;2.38;;;;;;;;;;5049944;28;20052;-32
2022/05/21 09:17:00;;;;;;;6.82;2.28;;;;;;;;;;5050468;28;20115;-31
2022/05/21 09:19:06;;;;;;;5.00;2.08;;;;;;;;;;5036275;28;20049;-34
2022/05/21 09:21:34;;;;;;;9.80;2.28;;;;;;;;;;5032205;28;20136;-31
2022/05/21 09:24:02;;;;;;;6.82;2.22;;;;;;;;;;5049867;28;20067;-32
2022/05/21 09:26:30;;;;;;;5.97;1.90;;;;;;;;;;5049868;28;20044;-32
2022/05/21 09:29:31;;;;;;;9.73;3.05;;;;;;;;;;5050308;28;20045;-32
2022/05/21 09:31:58;;;;;;;5.05;1.85;;;;;;;;;;5017445;28;20418;-35
2022/05/21 09:34:31;;;;;;;6.50;2.00;;;;;;;;;;5050849;28;20044;-32
2022/05/21 09:36:58;;;;;;;4.60;1.70;;;;;;;;;;5050033;28;20079;-31
2022/05/21 09:39:30;;;;;;;6.57;2.38;;;;;;;;;;5049972;28;20124;-32
2022/05/21 09:45:21;;;;;;;9.87;2.27;;;;;;;;;;5049344;28;20049;-32
2022/05/21 09:47:47;;;;;;;5.35;1.75;;;;;;;;;;5049385;28;20037;-33
2022/05/21 09:50:13;;;;;;;6.03;2.05;;;;;;;;;;5050418;28;20041;-32
2022/05/21 09:52:42;;;;;;;7.15;2.03;;;;;;;;;;5049756;28;20040;-33
2022/05/21 09:55:37;;;;;;;6.70;2.13;;;;;;;;;;5050466;28;20048;-33
2022/05/21 09:58:13;;;;;;;6.78;1.95;;;;;;;;;;5039276;28;20053;-32
2022/05/21 10:00:39;;;;;;;7.07;2.17;;;;;;;;;;5036615;28;20059;-33
2022/05/21 10:03:07;;;;;;;4.88;1.60;;;;;;;;;;5053894;28;20045;-33
2022/05/21 10:05:39;;;;;;;5.85;1.77;;;;;;;;;;5053996;28;20045;-33
2022/05/21 10:11:00;;;;;;;5.22;2.00;;;;;;;;;;5042523;28;20041;-33
2022/05/21 10:13:32;;;;;;;6.15;2.17;;;;;;;;;;5054455;28;20047;-32
2022/05/21 10:16:18;;;;;;;8.68;1.88;;;;;;;;;;5049818;28;20038;-32
2022/05/21 10:18:51;;;;;;;5.57;2.17;;;;;;;;;;5047095;28;20135;-32
2022/05/21 10:21:56;;;;;;;5.38;1.90;;;;;;;;;;5050971;28;20044;-32
2022/05/21 10:24:25;;;;;;;6.57;2.10;;;;;;;;;;4966142;28;20078;-31
2022/05/21 10:26:51;;;;;;;4.25;1.50;;;;;;;;;;4971631;28;20039;-33
2022/05/21 10:29:28;;;;;;;6.47;1.80;;;;;;;;;;5014345;28;20048;-34
2022/05/21 10:32:13;;;;;;;6.93;1.83;;;;;;;;;;5055334;28;20167;-29
2022/05/21 10:34:48;;;;;;;4.35;1.90;;;;;;;;;;5055242;28;20103;-30
2022/05/21 10:37:20;;;;;;;7.80;2.03;;;;;;;;;;5055279;28;20106;-31
2022/05/21 10:39:46;;;;;;;5.45;1.80;;;;;;;;;;5054804;28;20032;-30
2022/05/21 10:42:39;;;;;;;6.30;1.73;;;;;;;;;;5054649;28;20041;-30
2022/05/21 10:45:27;;;;;;;7.35;1.95;;;;;;;;;;5051667;28;20076;-32
2022/05/21 10:47:59;;;;;;;4.82;1.63;;;;;;;;;;5055092;28;20075;-31
2022/05/21 10:50:50;;;;;;;4.60;1.77;;;;;;;;;;5054630;28;20048;-29
2022/05/21 10:53:16;;;;;;;7.20;2.08;;;;;;;;;;5046645;28;20067;-30
2022/05/21 10:56:01;;;;;;;6.03;1.85;;;;;;;;;;5054377;28;20052;-29
2022/05/21 10:58:33;;;;;;;2.78;1.60;;;;;;;;;;5054107;28;20049;-30
2022/05/21 11:01:08;;;;;;;4.35;1.55;;;;;;;;;;5041557;28;20041;-31
2022/05/21 11:03:53;;;;;;;5.25;1.60;;;;;;;;;;5033337;28;20048;-34
2022/05/21 11:06:32;;;;;;;4.15;1.52;;;;;;;;;;5051242;28;20087;-34
2022/05/21 11:09:16;;;;;;;4.28;1.42;;;;;;;;;;5041212;28;20510;-34
2022/05/21 11:11:48;;;;;;;6.15;1.25;;;;;;;;;;5043931;28;20045;-33
2022/05/21 11:14:20;;;;;;;4.45;1.42;;;;;;;;;;5044279;28;20128;-33
2022/05/21 11:16:52;;;;;;;4.78;1.50;;;;;;;;;;5046515;28;20045;-33
2022/05/21 11:19:24;;;;;;;5.25;1.73;;;;;;;;;;5041285;28;20521;-32
2022/05/21 11:21:53;;;;;;;5.63;1.85;;;;;;;;;;5046992;28;20554;-34
2022/05/21 11:24:22;;;;;;;4.55;1.42;;;;;;;;;;5032229;28;20036;-32
2022/05/21 11:26:59;;;;;;;7.22;1.83;;;;;;;;;;5045945;28;20313;-33
2022/05/21 11:29:46;;;;;;;5.35;1.85;;;;;;;;;;5035363;28;20040;-34
2022/05/21 11:37:54;;;;;;;5.28;1.58;;;;;;;;;;5041864;28;20041;-32
2022/05/21 11:40:38;;;;;;;4.65;1.70;;;;;;;;;;5041631;28;20495;-34
2022/05/21 11:43:05;;;;;;;5.85;1.70;;;;;;;;;;5033986;28;20045;-34
2022/05/21 11:45:31;;;;;;;3.70;1.10;;;;;;;;;;5044146;28;20037;-33
2022/05/21 11:48:16;;;;;;;3.88;1.40;;;;;;;;;;5039682;28;20037;-33
2022/05/21 11:50:42;;;;;;;3.58;1.50;;;;;;;;;;5040056;28;20043;-34
2022/05/21 11:53:09;;;;;;;3.72;1.30;;;;;;;;;;5036719;28;20037;-32
2022/05/21 11:55:56;;;;;;;3.78;1.48;;;;;;;;;;5036688;28;20040;-32
2022/05/21 11:58:27;;;;;;;3.45;1.42;;;;;;;;;;5041010;28;20121;-33
2022/05/21 12:00:53;;;;;;;2.10;1.08;;;;;;;;;;5044816;28;20045;-33
2022/05/21 12:03:22;;;;;;;5.38;1.40;;;;;;;;;;5042537;28;20312;-32
2022/05/21 12:05:48;;;;;;;4.35;1.55;;;;;;;;;;5040831;28;20049;-33
2022/05/21 12:08:15;;;;;;;3.80;1.50;;;;;;;;;;5021215;28;20043;-34
2022/05/21 12:11:04;;;;;;;3.67;1.67;;;;;;;;;;5042870;28;20043;-32
2022/05/21 12:13:33;;;;;;;4.10;1.40;;;;;;;;;;5032706;28;20045;-33
2022/05/21 12:16:00;;;;;;;4.60;1.58;;;;;;;;;;5041788;28;20040;-34
2022/05/21 12:18:39;;;;;;;3.55;1.55;;;;;;;;;;5037907;28;20395;-33
2022/05/21 12:21:06;;;;;;;6.78;1.98;;;;;;;;;;5047213;28;20080;-32
2022/05/21 12:23:32;;;;;;;5.28;1.27;;;;;;;;;;5050505;28;20079;-33
2022/05/21 12:26:02;;;;;;;5.38;2.00;;;;;;;;;;5049155;28;20486;-33
2022/05/21 12:28:36;;;;;;;3.97;1.30;;;;;;;;;;5044512;28;20068;-32
2022/05/21 12:31:06;;;;;;;3.80;1.65;;;;;;;;;;5039169;28;20033;-33
2022/05/21 12:33:42;;;;;;;7.07;1.92;;;;;;;;;;5044857;28;20033;-35
2022/05/21 12:36:13;;;;;;;4.38;1.50;;;;;;;;;;5042868;28;20044;-32
2022/05/21 12:38:43;;;;;;;5.00;1.40;;;;;;;;;;5046370;28;20037;-33
2022/05/21 12:41:22;;;;;;;2.42;1.25;;;;;;;;;;5049916;28;20064;-33
2022/05/21 12:43:51;;;;;;;3.72;1.50;;;;;;;;;;5042299;28;20406;-33
2022/05/21 12:46:27;;;;;;;3.55;1.77;;;;;;;;;;5032488;28;20553;-32
2022/05/21 12:48:56;;;;;;;4.07;1.40;;;;;;;;;;5051180;28;20037;-30
2022/05/21 12:51:28;;;;;;;4.10;1.70;;;;;;;;;;5050930;28;20590;-30
2022/05/21 12:53:55;;;;;;;5.97;1.50;;;;;;;;;;5051246;28;20037;-30
2022/05/21 12:56:27;;;;;;;6.82;2.00;;;;;;;;;;5051281;28;20045;-30
2022/05/21 12:59:06;;;;;;;5.70;1.50;;;;;;;;;;5051467;28;20067;-31
2022/05/21 13:01:34;;;;;;;4.43;1.45;;;;;;;;;;5050839;28;20274;-31
2022/05/21 13:04:00;;;;;;;5.05;1.38;;;;;;;;;;5051444;28;20174;-30
2022/05/21 13:06:28;;;;;;;3.67;1.50;;;;;;;;;;5050495;28;20040;-30
2022/05/21 13:08:54;;;;;;;5.07;1.30;;;;;;;;;;5051047;28;20037;-30
2022/05/21 13:11:22;;;;;;;2.45;1.38;;;;;;;;;;5051387;28;20501;-30
2022/05/21 13:14:00;;;;;;;3.25;1.20;;;;;;;;;;5051336;28;20041;-31
2022/05/21 13:16:26;;;;;;;3.08;1.45;;;;;;;;;;5050379;28;20316;-30
2022/05/21 13:19:11;;;;;;;3.05;1.33;;;;;;;;;;5051085;28;20434;-30
2022/05/21 13:21:46;;;;;;;3.15;1.40;;;;;;;;;;5051082;28;20120;-30
2022/05/21 13:24:17;;;;;;;4.18;1.30;;;;;;;;;;5049993;28;20398;-30
2022/05/21 13:26:43;;;;;;;3.63;1.40;;;;;;;;;;5050480;28;20445;-29
2022/05/21 13:29:13;;;;;;;1.92;1.00;;;;;;;;;;5050661;28;20044;-31
2022/05/21 13:31:39;;;;;;;3.70;1.13;;;;;;;;;;5050664;28;20082;-30
2022/05/21 13:34:05;;;;;;;3.30;1.27;;;;;;;;;;5051008;28;20120;-30
2022/05/21 13:36:33;;;;;;;3.95;1.30;;;;;;;;;;5050444;28;20037;-30
2022/05/21 13:39:00;;;;;;;5.70;1.10;;;;;;;;;;5050487;28;20438;-31
2022/05/21 13:41:31;;;;;;;4.28;1.10;;;;;;;;;;5050564;28;20049;-30
2022/05/21 13:43:58;;;;;;;4.22;1.20;;;;;;;;;;5050786;28;20044;-30
2022/05/21 13:46:25;;;;;;;4.88;1.30;;;;;;;;;;5050174;28;20053;-31
2022/05/21 13:48:53;;;;;;;5.60;1.60;;;;;;;;;;5050425;28;20056;-33
2022/05/21 13:51:22;;;;;;;3.85;1.45;;;;;;;;;;5048995;28;20045;-30
2022/05/21 13:53:50;;;;;;;5.28;1.85;;;;;;;;;;5050663;28;20065;-31
2022/05/21 13:56:34;;;;;;;3.35;1.38;;;;;;;;;;5050980;28;20081;-32
2022/05/21 13:59:04;;;;;;;3.63;1.50;;;;;;;;;;5049772;28;20467;-30
2022/05/21 14:01:32;;;;;;;4.38;1.70;;;;;;;;;;5050310;28;20052;-31
2022/05/21 14:04:10;;;;;;;4.53;1.38;;;;;;;;;;5037286;28;20470;-30
2022/05/21 14:06:45;;;;;;;4.50;1.40;;;;;;;;;;5030824;28;20072;-30
2022/05/21 14:09:24;;;;;;;4.65;1.50;;;;;;;;;;5030520;28;20045;-32
2022/05/21 14:11:55;;;;;;;3.95;1.52;;;;;;;;;;5030335;28;20037;-29
2022/05/21 14:14:24;;;;;;;5.03;1.40;;;;;;;;;;5049391;28;20095;-30
2022/05/21 14:16:52;;;;;;;4.57;1.75;;;;;;;;;;5050745;28;20045;-31
2022/05/21 14:19:18;;;;;;;6.70;1.60;;;;;;;;;;5050629;28;20055;-31
2022/05/21 14:22:04;;;;;;;4.95;1.83;;;;;;;;;;5049243;28;20037;-30
2022/05/21 14:24:35;;;;;;;4.90;1.85;;;;;;;;;;5050654;28;20041;-30
2022/05/21 14:27:03;;;;;;;1.98;1.17;;;;;;;;;;5049848;28;20049;-31
2022/05/21 14:29:32;;;;;;;4.47;1.30;;;;;;;;;;5050536;28;20077;-30
2022/05/21 14:32:34;;;;;;;4.53;1.67;;;;;;;;;;5050171;28;20072;-30
2022/05/21 14:35:29;;;;;;;4.85;1.40;;;;;;;;;;4988595;28;20042;-30
2022/05/21 14:37:57;;;;;;;5.32;1.60;;;;;;;;;;5036704;28;20045;-30
2022/05/21 14:40:24;;;;;;;3.55;1.65;;;;;;;;;;5050715;28;20045;-30
2022/05/21 14:42:51;;;;;;;5.07;1.35;;;;;;;;;;5051135;28;20445;-30
2022/05/21 14:45:21;;;;;;;5.65;1.67;;;;;;;;;;5043629;28;20041;-30
2022/05/21 14:47:54;;;;;;;5.13;1.80;;;;;;;;;;5033633;28;20044;-29
2022/05/21 14:53:05;;;;;;;4.05;1.88;;;;;;;;;;5032481;28;20048;-30
2022/05/21 14:55:32;;;;;;;6.43;2.10;;;;;;;;;;5032347;28;20656;-29
2022/05/21 14:57:59;;;;;;;4.50;1.92;;;;;;;;;;5032256;28;20120;-30
2022/05/21 15:00:25;;;;;;;4.03;1.90;;;;;;;;;;5031640;28;20041;-32
2022/05/21 15:02:53;;;;;;;5.88;1.83;;;;;;;;;;5032772;28;20052;-30
2022/05/21 15:05:19;;;;;;;6.38;1.77;;;;;;;;;;5033706;28;20049;-30
2022/05/21 15:07:48;;;;;;;5.32;2.08;;;;;;;;;;5032976;28;20066;-30
2022/05/21 15:10:16;;;;;;;6.97;2.17;;;;;;;;;;5033464;28;20441;-30
2022/05/21 15:12:42;;;;;;;6.30;2.22;;;;;;;;;;5033218;28;20042;-30
2022/05/21 15:15:09;;;;;;;5.78;1.70;;;;;;;;;;5015606;28;20049;-30
2022/05/21 15:17:35;;;;;;;5.53;1.92;;;;;;;;;;5033402;28;20052;-31
2022/05/21 15:20:01;;;;;;;7.35;1.83;;;;;;;;;;5032547;28;20120;-31